sensor_id;sensor_type;location;lat;lon;timestamp;P1;durP1;ratioP1;P2;durP2;ratioP2
35376;SDS011;21480;51.642;4.834;2022-12-01T00:00:45;145.67;;;130.67;;
35376;SDS011;21480;51.642;4.834;2022-12-01T00:03:11;144.60;;;129.97;;
35376;SDS011;21480;51.642;4.834;2022-12-01T00:05:37;143.93;;;129.20;;
35376;SDS011;21480;51.642;4.834;2022-12-01T00:08:03;145.77;;;130.63;;
35376;SDS011;21480;51.642;4.834;2022-12-01T00:10:29;145.43;;;130.60;;
35376;SDS011;21480;51.642;4.834;2022-12-01T00:12:58;143.53;;;129.20;;
35376;SDS011;21480;51.642;4.834;2022-12-01T00:15:26;143.47;;;128.63;;
35376;SDS011;21480;51.642;4.834;2022-12-01T00:17:53;142.17;;;127.57;;
35376;SDS011;21480;51.642;4.834;2022-12-01T00:20:19;143.77;;;129.10;;
35376;SDS011;21480;51.642;4.834;2022-12-01T00:22:45;143.80;;;129.23;;
35376;SDS011;21480;51.642;4.834;2022-12-01T00:25:12;143.47;;;129.20;;
35376;SDS011;21480;51.642;4.834;2022-12-01T00:27:39;142.40;;;127.93;;
35376;SDS011;21480;51.642;4.834;2022-12-01T00:30:05;144.97;;;130.20;;
35376;SDS011;21480;51.642;4.834;2022-12-01T00:32:34;144.27;;;129.43;;
35376;SDS011;21480;51.642;4.834;2022-12-01T00:35:00;145.27;;;130.73;;
35376;SDS011;21480;51.642;4.834;2022-12-01T00:37:28;144.30;;;130.03;;
35376;SDS011;21480;51.642;4.834;2022-12-01T00:39:54;141.23;;;127.20;;
35376;SDS011;21480;51.642;4.834;2022-12-01T00:42:21;142.90;;;128.10;;
35376;SDS011;21480;51.642;4.834;2022-12-01T00:44:46;146.33;;;131.37;;
35376;SDS011;21480;51.642;4.834;2022-12-01T00:47:12;143.37;;;129.00;;
35376;SDS011;21480;51.642;4.834;2022-12-01T00:49:39;144.87;;;130.17;;
35376;SDS011;21480;51.642;4.834;2022-12-01T00:52:04;142.23;;;128.07;;
35376;SDS011;21480;51.642;4.834;2022-12-01T00:54:30;143.03;;;128.20;;
35376;SDS011;21480;51.642;4.834;2022-12-01T00:56:59;143.80;;;128.93;;
35376;SDS011;21480;51.642;4.834;2022-12-01T00:59:25;142.90;;;128.50;;
35376;SDS011;21480;51.642;4.834;2022-12-01T01:01:51;144.07;;;129.30;;
35376;SDS011;21480;51.642;4.834;2022-12-01T01:04:17;145.83;;;131.33;;
35376;SDS011;21480;51.642;4.834;2022-12-01T01:06:43;142.60;;;128.00;;
35376;SDS011;21480;51.642;4.834;2022-12-01T01:09:09;141.33;;;127.57;;
35376;SDS011;21480;51.642;4.834;2022-12-01T01:11:36;142.47;;;128.40;;
35376;SDS011;21480;51.642;4.834;2022-12-01T01:14:02;141.63;;;127.53;;
35376;SDS011;21480;51.642;4.834;2022-12-01T01:16:31;141.90;;;127.63;;
35376;SDS011;21480;51.642;4.834;2022-12-01T01:18:57;143.10;;;128.20;;
35376;SDS011;21480;51.642;4.834;2022-12-01T01:21:23;144.10;;;129.90;;
35376;SDS011;21480;51.642;4.834;2022-12-01T01:23:51;145.97;;;130.53;;
35376;SDS011;21480;51.642;4.834;2022-12-01T01:26:18;148.07;;;132.87;;
35376;SDS011;21480;51.642;4.834;2022-12-01T01:28:46;145.70;;;130.57;;
35376;SDS011;21480;51.642;4.834;2022-12-01T01:31:13;146.97;;;131.73;;
35376;SDS011;21480;51.642;4.834;2022-12-01T01:33:42;145.20;;;130.27;;
35376;SDS011;21480;51.642;4.834;2022-12-01T01:36:08;146.47;;;131.67;;
35376;SDS011;21480;51.642;4.834;2022-12-01T01:38:34;144.37;;;129.53;;
35376;SDS011;21480;51.642;4.834;2022-12-01T01:41:01;144.53;;;130.17;;
35376;SDS011;21480;51.642;4.834;2022-12-01T01:43:47;141.40;;;127.13;;
35376;SDS011;21480;51.642;4.834;2022-12-01T01:46:20;145.00;;;130.27;;
35376;SDS011;21480;51.642;4.834;2022-12-01T01:49:10;143.03;;;128.07;;
35376;SDS011;21480;51.642;4.834;2022-12-01T01:51:50;142.87;;;128.47;;
35376;SDS011;21480;51.642;4.834;2022-12-01T01:54:27;142.73;;;128.23;;
35376;SDS011;21480;51.642;4.834;2022-12-01T01:57:10;139.90;;;126.20;;
35376;SDS011;21480;51.642;4.834;2022-12-01T01:59:42;140.57;;;126.70;;
35376;SDS011;21480;51.642;4.834;2022-12-01T02:02:11;141.60;;;127.60;;
35376;SDS011;21480;51.642;4.834;2022-12-01T02:04:43;140.17;;;126.27;;
35376;SDS011;21480;51.642;4.834;2022-12-01T02:07:11;140.60;;;126.77;;
35376;SDS011;21480;51.642;4.834;2022-12-01T02:09:40;141.60;;;127.10;;
35376;SDS011;21480;51.642;4.834;2022-12-01T02:34:27;145.57;;;130.27;;
35376;SDS011;21480;51.642;4.834;2022-12-01T02:39:50;148.63;;;132.50;;
35376;SDS011;21480;51.642;4.834;2022-12-01T02:42:25;147.77;;;132.00;;
35376;SDS011;21480;51.642;4.834;2022-12-01T02:45:35;151.03;;;134.97;;
35376;SDS011;21480;51.642;4.834;2022-12-01T02:48:09;148.30;;;132.40;;
35376;SDS011;21480;51.642;4.834;2022-12-01T02:50:38;157.87;;;131.93;;
35376;SDS011;21480;51.642;4.834;2022-12-01T02:53:06;149.43;;;132.93;;
35376;SDS011;21480;51.642;4.834;2022-12-01T02:55:35;148.33;;;132.17;;
35376;SDS011;21480;51.642;4.834;2022-12-01T02:58:01;149.50;;;133.23;;
35376;SDS011;21480;51.642;4.834;2022-12-01T03:00:27;151.57;;;135.27;;
35376;SDS011;21480;51.642;4.834;2022-12-01T03:03:17;147.93;;;131.97;;
35376;SDS011;21480;51.642;4.834;2022-12-01T03:10:54;149.83;;;133.50;;
35376;SDS011;21480;51.642;4.834;2022-12-01T03:16:05;152.60;;;136.23;;
35376;SDS011;21480;51.642;4.834;2022-12-01T03:23:39;148.30;;;132.23;;
35376;SDS011;21480;51.642;4.834;2022-12-01T03:26:09;151.67;;;135.60;;
35376;SDS011;21480;51.642;4.834;2022-12-01T03:28:41;154.30;;;134.57;;
35376;SDS011;21480;51.642;4.834;2022-12-01T03:31:18;151.13;;;134.03;;
35376;SDS011;21480;51.642;4.834;2022-12-01T03:33:50;150.00;;;134.13;;
35376;SDS011;21480;51.642;4.834;2022-12-01T03:36:23;152.10;;;136.13;;
35376;SDS011;21480;51.642;4.834;2022-12-01T03:38:53;150.73;;;134.60;;
35376;SDS011;21480;51.642;4.834;2022-12-01T03:41:25;151.03;;;134.57;;
35376;SDS011;21480;51.642;4.834;2022-12-01T03:44:02;151.30;;;134.47;;
35376;SDS011;21480;51.642;4.834;2022-12-01T03:46:37;153.20;;;136.40;;
35376;SDS011;21480;51.642;4.834;2022-12-01T03:49:12;158.07;;;134.40;;
35376;SDS011;21480;51.642;4.834;2022-12-01T03:57:05;151.40;;;134.53;;
35376;SDS011;21480;51.642;4.834;2022-12-01T03:59:35;157.07;;;136.50;;
35376;SDS011;21480;51.642;4.834;2022-12-01T04:02:04;161.97;;;135.03;;
35376;SDS011;21480;51.642;4.834;2022-12-01T04:04:31;153.80;;;136.90;;
35376;SDS011;21480;51.642;4.834;2022-12-01T04:06:57;152.00;;;135.50;;
35376;SDS011;21480;51.642;4.834;2022-12-01T04:09:22;158.07;;;136.37;;
35376;SDS011;21480;51.642;4.834;2022-12-01T04:11:48;151.50;;;135.33;;
35376;SDS011;21480;51.642;4.834;2022-12-01T04:14:32;154.33;;;137.40;;
35376;SDS011;21480;51.642;4.834;2022-12-01T04:16:58;152.37;;;135.87;;
35376;SDS011;21480;51.642;4.834;2022-12-01T04:19:23;153.03;;;136.33;;
35376;SDS011;21480;51.642;4.834;2022-12-01T04:21:49;153.70;;;136.80;;
35376;SDS011;21480;51.642;4.834;2022-12-01T04:24:15;152.93;;;135.10;;
35376;SDS011;21480;51.642;4.834;2022-12-01T04:26:41;153.10;;;136.30;;
35376;SDS011;21480;51.642;4.834;2022-12-01T04:29:08;155.90;;;137.10;;
35376;SDS011;21480;51.642;4.834;2022-12-01T04:31:35;157.57;;;136.43;;
35376;SDS011;21480;51.642;4.834;2022-12-01T04:34:01;156.57;;;137.03;;
35376;SDS011;21480;51.642;4.834;2022-12-01T04:36:29;156.20;;;137.37;;
35376;SDS011;21480;51.642;4.834;2022-12-01T04:38:55;156.07;;;136.40;;
35376;SDS011;21480;51.642;4.834;2022-12-01T04:41:24;158.50;;;135.30;;
35376;SDS011;21480;51.642;4.834;2022-12-01T04:43:54;162.37;;;136.37;;
35376;SDS011;21480;51.642;4.834;2022-12-01T04:46:20;154.23;;;136.73;;
35376;SDS011;21480;51.642;4.834;2022-12-01T04:48:49;152.87;;;135.90;;
35376;SDS011;21480;51.642;4.834;2022-12-01T04:51:15;161.30;;;137.37;;
35376;SDS011;21480;51.642;4.834;2022-12-01T04:53:41;159.43;;;138.53;;
35376;SDS011;21480;51.642;4.834;2022-12-01T04:56:07;152.70;;;135.70;;
35376;SDS011;21480;51.642;4.834;2022-12-01T04:58:33;155.23;;;134.23;;
35376;SDS011;21480;51.642;4.834;2022-12-01T05:01:05;153.40;;;135.00;;
35376;SDS011;21480;51.642;4.834;2022-12-01T05:03:36;158.80;;;136.70;;
35376;SDS011;21480;51.642;4.834;2022-12-01T05:06:03;153.77;;;135.93;;
35376;SDS011;21480;51.642;4.834;2022-12-01T05:08:34;153.73;;;136.97;;
35376;SDS011;21480;51.642;4.834;2022-12-01T05:11:00;152.37;;;134.70;;
35376;SDS011;21480;51.642;4.834;2022-12-01T05:13:26;151.93;;;135.30;;
35376;SDS011;21480;51.642;4.834;2022-12-01T05:15:52;156.67;;;135.73;;
35376;SDS011;21480;51.642;4.834;2022-12-01T05:18:18;153.57;;;134.73;;
35376;SDS011;21480;51.642;4.834;2022-12-01T05:20:44;159.10;;;137.10;;
35376;SDS011;21480;51.642;4.834;2022-12-01T05:23:22;155.20;;;136.83;;
35376;SDS011;21480;51.642;4.834;2022-12-01T05:25:59;162.13;;;138.27;;
35376;SDS011;21480;51.642;4.834;2022-12-01T05:28:28;153.03;;;136.27;;
35376;SDS011;21480;51.642;4.834;2022-12-01T05:30:54;151.13;;;134.53;;
35376;SDS011;21480;51.642;4.834;2022-12-01T05:33:21;151.90;;;135.57;;
35376;SDS011;21480;51.642;4.834;2022-12-01T05:35:47;151.97;;;135.50;;
35376;SDS011;21480;51.642;4.834;2022-12-01T05:38:14;150.10;;;133.80;;
35376;SDS011;21480;51.642;4.834;2022-12-01T05:40:40;154.90;;;137.73;;
35376;SDS011;21480;51.642;4.834;2022-12-01T05:43:06;158.03;;;135.63;;
35376;SDS011;21480;51.642;4.834;2022-12-01T05:45:32;152.07;;;135.73;;
35376;SDS011;21480;51.642;4.834;2022-12-01T05:47:59;156.83;;;138.07;;
35376;SDS011;21480;51.642;4.834;2022-12-01T05:50:26;148.87;;;132.90;;
35376;SDS011;21480;51.642;4.834;2022-12-01T05:52:54;151.10;;;134.63;;
35376;SDS011;21480;51.642;4.834;2022-12-01T05:55:20;151.87;;;135.53;;
35376;SDS011;21480;51.642;4.834;2022-12-01T05:57:46;153.50;;;136.60;;
35376;SDS011;21480;51.642;4.834;2022-12-01T06:00:12;156.70;;;135.57;;
35376;SDS011;21480;51.642;4.834;2022-12-01T06:02:39;155.50;;;135.70;;
35376;SDS011;21480;51.642;4.834;2022-12-01T06:05:05;154.73;;;137.87;;
35376;SDS011;21480;51.642;4.834;2022-12-01T06:07:32;150.20;;;133.83;;
35376;SDS011;21480;51.642;4.834;2022-12-01T06:09:59;152.23;;;133.83;;
35376;SDS011;21480;51.642;4.834;2022-12-01T06:12:26;150.43;;;134.10;;
35376;SDS011;21480;51.642;4.834;2022-12-01T06:14:52;149.87;;;133.13;;
35376;SDS011;21480;51.642;4.834;2022-12-01T06:17:17;151.80;;;133.53;;
35376;SDS011;21480;51.642;4.834;2022-12-01T06:19:43;150.00;;;134.17;;
35376;SDS011;21480;51.642;4.834;2022-12-01T06:22:09;150.40;;;133.83;;
35376;SDS011;21480;51.642;4.834;2022-12-01T06:24:35;149.63;;;133.87;;
35376;SDS011;21480;51.642;4.834;2022-12-01T06:27:01;156.40;;;133.87;;
35376;SDS011;21480;51.642;4.834;2022-12-01T06:29:27;152.97;;;136.47;;
35376;SDS011;21480;51.642;4.834;2022-12-01T06:31:52;151.03;;;134.57;;
35376;SDS011;21480;51.642;4.834;2022-12-01T06:34:18;150.53;;;133.47;;
35376;SDS011;21480;51.642;4.834;2022-12-01T06:36:43;149.43;;;132.97;;
35376;SDS011;21480;51.642;4.834;2022-12-01T06:39:09;147.70;;;131.80;;
35376;SDS011;21480;51.642;4.834;2022-12-01T06:41:35;150.83;;;133.47;;
35376;SDS011;21480;51.642;4.834;2022-12-01T06:44:02;148.40;;;132.50;;
35376;SDS011;21480;51.642;4.834;2022-12-01T06:46:28;150.87;;;134.77;;
35376;SDS011;21480;51.642;4.834;2022-12-01T06:48:54;150.03;;;133.97;;
35376;SDS011;21480;51.642;4.834;2022-12-01T06:51:19;149.20;;;132.93;;
35376;SDS011;21480;51.642;4.834;2022-12-01T06:53:45;151.87;;;134.17;;
35376;SDS011;21480;51.642;4.834;2022-12-01T06:56:11;149.80;;;133.00;;
35376;SDS011;21480;51.642;4.834;2022-12-01T06:58:36;148.17;;;132.30;;
35376;SDS011;21480;51.642;4.834;2022-12-01T07:01:09;149.83;;;133.80;;
35376;SDS011;21480;51.642;4.834;2022-12-01T07:03:36;150.17;;;133.83;;
35376;SDS011;21480;51.642;4.834;2022-12-01T07:06:02;151.80;;;135.23;;
35376;SDS011;21480;51.642;4.834;2022-12-01T07:08:29;149.03;;;133.07;;
35376;SDS011;21480;51.642;4.834;2022-12-01T07:13:26;150.67;;;134.57;;
35376;SDS011;21480;51.642;4.834;2022-12-01T07:15:53;151.20;;;135.50;;
35376;SDS011;21480;51.642;4.834;2022-12-01T07:18:19;146.93;;;131.13;;
35376;SDS011;21480;51.642;4.834;2022-12-01T07:20:44;150.70;;;134.20;;
35376;SDS011;21480;51.642;4.834;2022-12-01T07:23:10;153.43;;;136.70;;
35376;SDS011;21480;51.642;4.834;2022-12-01T07:25:36;153.60;;;136.63;;
35376;SDS011;21480;51.642;4.834;2022-12-01T07:28:04;154.37;;;132.90;;
35376;SDS011;21480;51.642;4.834;2022-12-01T07:30:30;150.20;;;133.57;;
35376;SDS011;21480;51.642;4.834;2022-12-01T07:32:56;149.33;;;133.47;;
35376;SDS011;21480;51.642;4.834;2022-12-01T07:35:22;151.37;;;134.53;;
35376;SDS011;21480;51.642;4.834;2022-12-01T07:37:52;151.13;;;135.00;;
35376;SDS011;21480;51.642;4.834;2022-12-01T07:40:21;150.53;;;134.20;;
35376;SDS011;21480;51.642;4.834;2022-12-01T07:42:47;154.37;;;137.40;;
35376;SDS011;21480;51.642;4.834;2022-12-01T07:45:13;153.03;;;136.07;;
35376;SDS011;21480;51.642;4.834;2022-12-01T07:47:42;152.27;;;134.13;;
35376;SDS011;21480;51.642;4.834;2022-12-01T07:50:08;161.20;;;135.33;;
35376;SDS011;21480;51.642;4.834;2022-12-01T07:52:35;156.67;;;135.30;;
35376;SDS011;21480;51.642;4.834;2022-12-01T07:55:00;152.03;;;135.43;;
35376;SDS011;21480;51.642;4.834;2022-12-01T07:57:26;151.13;;;135.00;;
35376;SDS011;21480;51.642;4.834;2022-12-01T07:59:52;153.73;;;136.87;;
35376;SDS011;21480;51.642;4.834;2022-12-01T08:02:17;150.07;;;133.73;;
35376;SDS011;21480;51.642;4.834;2022-12-01T08:04:43;152.90;;;135.00;;
35376;SDS011;21480;51.642;4.834;2022-12-01T08:07:09;153.60;;;134.97;;
35376;SDS011;21480;51.642;4.834;2022-12-01T08:09:34;162.53;;;134.60;;
35376;SDS011;21480;51.642;4.834;2022-12-01T08:12:01;152.20;;;133.13;;
35376;SDS011;21480;51.642;4.834;2022-12-01T08:14:26;152.40;;;135.83;;
35376;SDS011;21480;51.642;4.834;2022-12-01T08:16:52;161.53;;;138.07;;
35376;SDS011;21480;51.642;4.834;2022-12-01T08:19:18;162.13;;;134.47;;
35376;SDS011;21480;51.642;4.834;2022-12-01T08:21:43;174.27;;;136.70;;
35376;SDS011;21480;51.642;4.834;2022-12-01T08:24:09;172.17;;;137.13;;
35376;SDS011;21480;51.642;4.834;2022-12-01T08:26:35;176.50;;;136.50;;
35376;SDS011;21480;51.642;4.834;2022-12-01T08:29:01;175.77;;;137.43;;
35376;SDS011;21480;51.642;4.834;2022-12-01T08:31:28;173.00;;;137.30;;
35376;SDS011;21480;51.642;4.834;2022-12-01T08:33:56;168.20;;;137.37;;
35376;SDS011;21480;51.642;4.834;2022-12-01T08:36:22;184.63;;;137.93;;
35376;SDS011;21480;51.642;4.834;2022-12-01T08:38:49;177.30;;;140.77;;
35376;SDS011;21480;51.642;4.834;2022-12-01T08:41:17;174.20;;;137.77;;
35376;SDS011;21480;51.642;4.834;2022-12-01T08:43:43;170.80;;;137.77;;
35376;SDS011;21480;51.642;4.834;2022-12-01T08:46:12;175.53;;;137.20;;
35376;SDS011;21480;51.642;4.834;2022-12-01T08:48:38;178.70;;;138.03;;
35376;SDS011;21480;51.642;4.834;2022-12-01T08:51:14;187.27;;;139.43;;
35376;SDS011;21480;51.642;4.834;2022-12-01T08:53:43;174.23;;;138.30;;
35376;SDS011;21480;51.642;4.834;2022-12-01T08:56:15;174.30;;;138.00;;
35376;SDS011;21480;51.642;4.834;2022-12-01T08:58:45;189.07;;;138.77;;
35376;SDS011;21480;51.642;4.834;2022-12-01T09:01:13;177.20;;;139.13;;
35376;SDS011;21480;51.642;4.834;2022-12-01T09:03:40;180.13;;;139.17;;
35376;SDS011;21480;51.642;4.834;2022-12-01T09:06:08;171.67;;;136.87;;
35376;SDS011;21480;51.642;4.834;2022-12-01T09:08:34;178.17;;;138.13;;
35376;SDS011;21480;51.642;4.834;2022-12-01T09:11:02;173.63;;;140.60;;
35376;SDS011;21480;51.642;4.834;2022-12-01T09:13:31;174.57;;;140.90;;
35376;SDS011;21480;51.642;4.834;2022-12-01T09:15:59;178.10;;;140.77;;
35376;SDS011;21480;51.642;4.834;2022-12-01T09:18:29;172.00;;;136.37;;
35376;SDS011;21480;51.642;4.834;2022-12-01T09:20:55;170.47;;;138.97;;
35376;SDS011;21480;51.642;4.834;2022-12-01T09:23:22;163.20;;;136.03;;
35376;SDS011;21480;51.642;4.834;2022-12-01T09:25:49;159.03;;;135.10;;
35376;SDS011;21480;51.642;4.834;2022-12-01T09:28:16;159.67;;;136.13;;
35376;SDS011;21480;51.642;4.834;2022-12-01T09:30:42;160.00;;;136.77;;
35376;SDS011;21480;51.642;4.834;2022-12-01T09:33:09;153.80;;;137.03;;
35376;SDS011;21480;51.642;4.834;2022-12-01T09:35:35;158.83;;;136.07;;
35376;SDS011;21480;51.642;4.834;2022-12-01T09:38:01;165.93;;;139.43;;
35376;SDS011;21480;51.642;4.834;2022-12-01T09:40:34;161.50;;;136.73;;
35376;SDS011;21480;51.642;4.834;2022-12-01T09:43:03;162.90;;;135.47;;
35376;SDS011;21480;51.642;4.834;2022-12-01T09:45:35;160.30;;;136.13;;
35376;SDS011;21480;51.642;4.834;2022-12-01T09:48:04;158.93;;;139.33;;
35376;SDS011;21480;51.642;4.834;2022-12-01T09:50:32;156.50;;;133.73;;
35376;SDS011;21480;51.642;4.834;2022-12-01T09:53:02;153.67;;;134.20;;
35376;SDS011;21480;51.642;4.834;2022-12-01T09:55:31;155.10;;;135.03;;
35376;SDS011;21480;51.642;4.834;2022-12-01T09:57:59;159.40;;;136.97;;
35376;SDS011;21480;51.642;4.834;2022-12-01T10:00:28;152.27;;;133.90;;
35376;SDS011;21480;51.642;4.834;2022-12-01T10:03:14;153.20;;;135.93;;
35376;SDS011;21480;51.642;4.834;2022-12-01T10:08:20;153.60;;;135.37;;
35376;SDS011;21480;51.642;4.834;2022-12-01T10:10:50;161.07;;;136.50;;
35376;SDS011;21480;51.642;4.834;2022-12-01T10:13:23;155.07;;;138.30;;
35376;SDS011;21480;51.642;4.834;2022-12-01T10:22:11;151.50;;;134.83;;
35376;SDS011;21480;51.642;4.834;2022-12-01T10:25:22;149.53;;;133.73;;
35376;SDS011;21480;51.642;4.834;2022-12-01T10:30:50;151.23;;;134.90;;
35376;SDS011;21480;51.642;4.834;2022-12-01T10:33:29;151.03;;;134.47;;
35376;SDS011;21480;51.642;4.834;2022-12-01T10:36:00;154.33;;;137.57;;
35376;SDS011;21480;51.642;4.834;2022-12-01T10:40:53;152.67;;;136.50;;
35376;SDS011;21480;51.642;4.834;2022-12-01T10:43:43;150.93;;;134.37;;
35376;SDS011;21480;51.642;4.834;2022-12-01T10:46:24;152.73;;;136.43;;
35376;SDS011;21480;51.642;4.834;2022-12-01T10:49:13;153.40;;;136.77;;
35376;SDS011;21480;51.642;4.834;2022-12-01T10:51:53;154.20;;;137.20;;
35376;SDS011;21480;51.642;4.834;2022-12-01T10:54:22;150.60;;;134.57;;
35376;SDS011;21480;51.642;4.834;2022-12-01T10:56:59;152.00;;;135.40;;
35376;SDS011;21480;51.642;4.834;2022-12-01T11:01:55;150.30;;;134.43;;
35376;SDS011;21480;51.642;4.834;2022-12-01T11:04:36;151.43;;;135.23;;
35376;SDS011;21480;51.642;4.834;2022-12-01T11:07:08;154.70;;;138.30;;
35376;SDS011;21480;51.642;4.834;2022-12-01T11:09:44;152.97;;;135.40;;
35376;SDS011;21480;51.642;4.834;2022-12-01T11:12:14;152.93;;;136.67;;
35376;SDS011;21480;51.642;4.834;2022-12-01T11:14:43;153.13;;;136.30;;
35376;SDS011;21480;51.642;4.834;2022-12-01T11:19:54;149.80;;;133.73;;
35376;SDS011;21480;51.642;4.834;2022-12-01T11:22:25;151.13;;;135.10;;
35376;SDS011;21480;51.642;4.834;2022-12-01T11:24:58;151.43;;;135.23;;
35376;SDS011;21480;51.642;4.834;2022-12-01T11:27:29;150.07;;;134.37;;
35376;SDS011;21480;51.642;4.834;2022-12-01T11:30:06;149.53;;;133.60;;
35376;SDS011;21480;51.642;4.834;2022-12-01T11:33:02;149.57;;;134.40;;
35376;SDS011;21480;51.642;4.834;2022-12-01T11:35:30;150.13;;;134.33;;
35376;SDS011;21480;51.642;4.834;2022-12-01T11:37:59;148.63;;;133.83;;
35376;SDS011;21480;51.642;4.834;2022-12-01T11:40:31;148.97;;;133.67;;
35376;SDS011;21480;51.642;4.834;2022-12-01T11:43:03;146.70;;;131.77;;
35376;SDS011;21480;51.642;4.834;2022-12-01T11:45:34;148.87;;;133.70;;
35376;SDS011;21480;51.642;4.834;2022-12-01T11:50:42;149.07;;;134.07;;
35376;SDS011;21480;51.642;4.834;2022-12-01T11:53:25;151.87;;;135.97;;
35376;SDS011;21480;51.642;4.834;2022-12-01T11:58:55;150.87;;;135.60;;
35376;SDS011;21480;51.642;4.834;2022-12-01T12:01:44;151.33;;;135.80;;
35376;SDS011;21480;51.642;4.834;2022-12-01T12:13:05;146.33;;;132.17;;
35376;SDS011;21480;51.642;4.834;2022-12-01T12:18:22;149.57;;;134.63;;
35376;SDS011;21480;51.642;4.834;2022-12-01T12:27:06;149.83;;;134.63;;
35376;SDS011;21480;51.642;4.834;2022-12-01T12:32:42;148.20;;;133.33;;
35376;SDS011;21480;51.642;4.834;2022-12-01T12:35:47;149.00;;;133.50;;
35376;SDS011;21480;51.642;4.834;2022-12-01T12:44:11;147.97;;;132.97;;
35376;SDS011;21480;51.642;4.834;2022-12-01T12:49:57;148.60;;;133.60;;
35376;SDS011;21480;51.642;4.834;2022-12-01T12:52:30;151.43;;;135.87;;
35376;SDS011;21480;51.642;4.834;2022-12-01T12:55:01;148.63;;;133.37;;
35376;SDS011;21480;51.642;4.834;2022-12-01T12:57:57;147.17;;;132.70;;
35376;SDS011;21480;51.642;4.834;2022-12-01T13:00:30;149.57;;;134.67;;
35376;SDS011;21480;51.642;4.834;2022-12-01T13:02:58;146.13;;;131.70;;
35376;SDS011;21480;51.642;4.834;2022-12-01T13:05:47;147.90;;;133.07;;
35376;SDS011;21480;51.642;4.834;2022-12-01T13:08:19;150.50;;;135.07;;
35376;SDS011;21480;51.642;4.834;2022-12-01T13:11:31;149.57;;;134.07;;
35376;SDS011;21480;51.642;4.834;2022-12-01T13:14:33;146.50;;;131.77;;
35376;SDS011;21480;51.642;4.834;2022-12-01T13:17:47;150.70;;;135.27;;
35376;SDS011;21480;51.642;4.834;2022-12-01T13:19:56;147.63;;;132.83;;
35376;SDS011;21480;51.642;4.834;2022-12-01T13:22:23;149.87;;;134.60;;
35376;SDS011;21480;51.642;4.834;2022-12-01T13:24:54;148.33;;;133.40;;
35376;SDS011;21480;51.642;4.834;2022-12-01T13:27:21;149.67;;;134.40;;
35376;SDS011;21480;51.642;4.834;2022-12-01T13:29:50;147.30;;;132.80;;
35376;SDS011;21480;51.642;4.834;2022-12-01T13:32:32;147.77;;;133.23;;
35376;SDS011;21480;51.642;4.834;2022-12-01T13:35:00;147.33;;;132.63;;
35376;SDS011;21480;51.642;4.834;2022-12-01T13:37:34;146.97;;;132.30;;
35376;SDS011;21480;51.642;4.834;2022-12-01T13:40:35;147.77;;;133.20;;
35376;SDS011;21480;51.642;4.834;2022-12-01T13:43:01;148.77;;;133.93;;
35376;SDS011;21480;51.642;4.834;2022-12-01T13:45:33;147.03;;;132.43;;
35376;SDS011;21480;51.642;4.834;2022-12-01T13:48:01;144.93;;;131.17;;
35376;SDS011;21480;51.642;4.834;2022-12-01T13:56:20;146.33;;;132.00;;
35376;SDS011;21480;51.642;4.834;2022-12-01T13:58:42;142.73;;;129.03;;
35376;SDS011;21480;51.642;4.834;2022-12-01T14:09:12;146.50;;;131.70;;
35376;SDS011;21480;51.642;4.834;2022-12-01T14:14:37;144.83;;;130.97;;
35376;SDS011;21480;51.642;4.834;2022-12-01T14:17:04;144.60;;;130.40;;
35376;SDS011;21480;51.642;4.834;2022-12-01T14:19:48;146.17;;;131.43;;
35376;SDS011;21480;51.642;4.834;2022-12-01T14:24:57;145.53;;;131.43;;
35376;SDS011;21480;51.642;4.834;2022-12-01T14:27:37;147.90;;;133.10;;
35376;SDS011;21480;51.642;4.834;2022-12-01T14:38:48;145.73;;;131.17;;
35376;SDS011;21480;51.642;4.834;2022-12-01T14:41:22;146.20;;;131.27;;
35376;SDS011;21480;51.642;4.834;2022-12-01T14:43:50;147.83;;;132.57;;
35376;SDS011;21480;51.642;4.834;2022-12-01T14:46:32;147.83;;;133.40;;
35376;SDS011;21480;51.642;4.834;2022-12-01T14:49:05;146.03;;;131.63;;
35376;SDS011;21480;51.642;4.834;2022-12-01T14:51:36;147.13;;;131.53;;
35376;SDS011;21480;51.642;4.834;2022-12-01T14:54:13;146.40;;;131.00;;
35376;SDS011;21480;51.642;4.834;2022-12-01T14:57:00;146.90;;;131.90;;
35376;SDS011;21480;51.642;4.834;2022-12-01T14:59:28;146.03;;;130.60;;
35376;SDS011;21480;51.642;4.834;2022-12-01T15:01:55;147.00;;;131.60;;
35376;SDS011;21480;51.642;4.834;2022-12-01T15:04:26;145.43;;;130.83;;
35376;SDS011;21480;51.642;4.834;2022-12-01T15:06:52;149.20;;;133.60;;
35376;SDS011;21480;51.642;4.834;2022-12-01T15:09:20;145.93;;;130.90;;
35376;SDS011;21480;51.642;4.834;2022-12-01T15:11:59;148.27;;;132.07;;
35376;SDS011;21480;51.642;4.834;2022-12-01T15:14:32;149.47;;;133.80;;
35376;SDS011;21480;51.642;4.834;2022-12-01T15:16:59;148.57;;;132.67;;
35376;SDS011;21480;51.642;4.834;2022-12-01T15:19:31;146.77;;;132.10;;
35376;SDS011;21480;51.642;4.834;2022-12-01T15:22:23;147.60;;;132.33;;
35376;SDS011;21480;51.642;4.834;2022-12-01T15:24:50;149.67;;;133.67;;
35376;SDS011;21480;51.642;4.834;2022-12-01T15:27:23;149.80;;;134.13;;
35376;SDS011;21480;51.642;4.834;2022-12-01T15:29:54;149.40;;;133.10;;
35376;SDS011;21480;51.642;4.834;2022-12-01T15:32:22;149.47;;;133.37;;
35376;SDS011;21480;51.642;4.834;2022-12-01T15:34:50;147.47;;;131.77;;
35376;SDS011;21480;51.642;4.834;2022-12-01T15:37:18;148.20;;;132.53;;
35376;SDS011;21480;51.642;4.834;2022-12-01T15:39:56;146.23;;;131.37;;
35376;SDS011;21480;51.642;4.834;2022-12-01T15:42:29;147.20;;;131.53;;
35376;SDS011;21480;51.642;4.834;2022-12-01T15:44:58;148.97;;;132.97;;
35376;SDS011;21480;51.642;4.834;2022-12-01T15:47:46;151.70;;;135.60;;
35376;SDS011;21480;51.642;4.834;2022-12-01T15:55:46;148.10;;;132.30;;
35376;SDS011;21480;51.642;4.834;2022-12-01T15:58:32;147.30;;;131.70;;
35376;SDS011;21480;51.642;4.834;2022-12-01T16:03:32;149.67;;;133.07;;
35376;SDS011;21480;51.642;4.834;2022-12-01T16:06:10;147.87;;;132.37;;
35376;SDS011;21480;51.642;4.834;2022-12-01T16:08:37;146.87;;;131.77;;
35376;SDS011;21480;51.642;4.834;2022-12-01T16:11:13;147.57;;;132.53;;
35376;SDS011;21480;51.642;4.834;2022-12-01T16:13:57;149.33;;;133.13;;
35376;SDS011;21480;51.642;4.834;2022-12-01T16:16:43;145.47;;;130.37;;
35376;SDS011;21480;51.642;4.834;2022-12-01T16:24:16;144.97;;;129.77;;
35376;SDS011;21480;51.642;4.834;2022-12-01T16:27:00;148.47;;;132.07;;
35376;SDS011;21480;51.642;4.834;2022-12-01T16:29:35;152.83;;;136.00;;
35376;SDS011;21480;51.642;4.834;2022-12-01T16:32:19;154.63;;;134.00;;
35376;SDS011;21480;51.642;4.834;2022-12-01T16:34:57;153.30;;;136.50;;
35376;SDS011;21480;51.642;4.834;2022-12-01T16:37:22;154.07;;;136.13;;